createdAt,value
2019-05-22T00:00:35.481Z,994.61
2019-05-22T00:01:35.469Z,994.68
2019-05-22T00:02:35.490Z,994.76
2019-05-22T00:03:35.446Z,994.74
2019-05-22T00:04:35.435Z,994.74
2019-05-22T00:05:35.423Z,994.69
2019-05-22T00:06:35.415Z,994.73
2019-05-22T00:07:35.416Z,994.70
2019-05-22T00:08:35.389Z,994.68
2019-05-22T00:09:35.407Z,994.72
2019-05-22T00:10:35.375Z,994.69
2019-05-22T00:11:35.355Z,994.72
2019-05-22T00:12:46.069Z,994.76
2019-05-22T00:13:36.332Z,994.70
2019-05-22T00:14:35.347Z,994.71
2019-05-22T00:15:38.379Z,994.72
2019-05-22T00:16:35.300Z,994.73
2019-05-22T00:17:35.290Z,994.76
2019-05-22T00:18:35.276Z,994.76
2019-05-22T00:19:35.293Z,994.78
2019-05-22T00:20:35.254Z,994.77
2019-05-22T00:21:35.242Z,994.80
2019-05-22T00:22:35.231Z,994.79
2019-05-22T00:23:35.222Z,994.82
2019-05-22T00:24:35.234Z,994.76
2019-05-22T00:25:35.222Z,994.76
2019-05-22T00:26:35.187Z,994.75
2019-05-22T00:27:35.175Z,994.77
2019-05-22T00:28:35.187Z,994.75
2019-05-22T00:29:35.155Z,994.80
2019-05-22T00:30:35.163Z,994.78
2019-05-22T00:31:35.132Z,994.82
2019-05-22T00:32:35.118Z,994.79
2019-05-22T00:33:36.432Z,994.81
2019-05-22T00:34:35.117Z,994.83
2019-05-22T00:35:35.085Z,994.85
2019-05-22T00:36:35.072Z,994.82
2019-05-22T00:37:35.065Z,994.85
2019-05-22T00:38:35.049Z,994.81
2019-05-22T00:39:35.062Z,994.88
2019-05-22T00:40:35.030Z,994.79
2019-05-22T00:41:35.015Z,994.84
2019-05-22T00:42:35.003Z,994.84
2019-05-22T00:43:34.994Z,994.86
2019-05-22T00:44:35.005Z,994.82
2019-05-22T00:45:34.972Z,994.80
2019-05-22T00:46:34.958Z,994.81
2019-05-22T00:47:34.949Z,994.85
2019-05-22T00:48:34.960Z,994.81
2019-05-22T00:49:34.926Z,994.83
2019-05-22T00:50:34.938Z,994.84
2019-05-22T00:51:34.925Z,994.81
2019-05-22T00:52:34.893Z,994.84
2019-05-22T00:53:34.880Z,994.82
2019-05-22T00:54:34.868Z,994.80
2019-05-22T00:55:34.857Z,994.80
2019-05-22T00:56:34.870Z,994.81
2019-05-22T00:57:34.835Z,994.84
2019-05-22T00:58:34.823Z,994.83
2019-05-22T00:59:34.813Z,994.86
2019-05-22T01:00:35.051Z,994.84
2019-05-22T01:01:34.791Z,994.85
2019-05-22T01:02:34.782Z,994.84
2019-05-22T01:03:34.766Z,994.88
2019-05-22T01:04:34.755Z,994.89
2019-05-22T01:05:34.761Z,994.83
2019-05-22T01:06:34.769Z,994.88
2019-05-22T01:07:34.743Z,994.88
2019-05-22T01:08:34.710Z,994.84
2019-05-22T01:09:34.720Z,994.90
2019-05-22T01:10:34.690Z,994.87
2019-05-22T01:11:34.702Z,994.90
2019-05-22T01:12:34.666Z,994.89
2019-05-22T01:13:34.657Z,994.87
2019-05-22T01:14:42.956Z,994.86
2019-05-22T01:15:35.635Z,994.91
2019-05-22T01:16:34.643Z,994.92
2019-05-22T01:17:34.609Z,994.95
2019-05-22T01:18:34.596Z,994.94
2019-05-22T01:19:34.614Z,994.91
2019-05-22T01:20:34.573Z,994.97
2019-05-22T01:21:34.565Z,994.97
2019-05-22T01:22:34.573Z,994.96
2019-05-22T01:23:34.562Z,994.99
2019-05-22T01:24:34.529Z,994.96
2019-05-22T01:25:34.517Z,995.00
2019-05-22T01:26:34.513Z,995.00
2019-05-22T01:27:34.499Z,994.95
2019-05-22T01:28:34.507Z,994.94
2019-05-22T01:29:34.473Z,994.96
2019-05-22T01:30:34.463Z,994.96
2019-05-22T01:31:34.481Z,994.99
2019-05-22T01:32:34.459Z,994.96
2019-05-22T01:33:34.425Z,994.96
2019-05-22T01:34:34.416Z,994.99
2019-05-22T01:35:34.405Z,994.95
2019-05-22T01:36:34.392Z,994.94
2019-05-22T01:37:34.398Z,994.96
2019-05-22T01:38:34.552Z,994.91
2019-05-22T01:39:34.383Z,994.96
2019-05-22T01:40:34.349Z,994.96
2019-05-22T01:41:34.335Z,995.00
2019-05-22T01:42:34.324Z,994.99
2019-05-22T01:43:34.314Z,995.01
2019-05-22T01:44:34.326Z,995.03
2019-05-22T01:45:34.291Z,994.99
2019-05-22T01:46:34.291Z,995.04
2019-05-22T01:47:34.290Z,995.04
2019-05-22T01:48:34.258Z,995.02
2019-05-22T01:49:34.278Z,995.04
2019-05-22T01:50:34.233Z,995.03
2019-05-22T01:51:34.234Z,995.05
2019-05-22T01:52:34.235Z,995.08
2019-05-22T01:53:34.199Z,995.11
2019-05-22T01:54:34.188Z,995.13
2019-05-22T01:55:34.179Z,995.11
2019-05-22T01:56:34.171Z,995.10
2019-05-22T01:57:34.176Z,995.16
2019-05-22T01:58:34.145Z,995.13
2019-05-22T01:59:34.131Z,995.16
2019-05-22T02:00:34.152Z,995.15
2019-05-22T02:01:34.109Z,995.16
2019-05-22T02:02:34.098Z,995.22
2019-05-22T02:03:34.087Z,995.22
2019-05-22T02:04:34.080Z,995.20
2019-05-22T02:05:34.084Z,995.19
2019-05-22T02:06:34.056Z,995.22
2019-05-22T02:07:34.042Z,995.22
2019-05-22T02:08:34.034Z,995.24
2019-05-22T02:09:34.077Z,995.21
2019-05-22T02:10:34.007Z,995.22
2019-05-22T02:11:34.003Z,995.22
2019-05-22T02:12:34.007Z,995.23
2019-05-22T02:13:33.974Z,995.24
2019-05-22T02:14:33.964Z,995.24
2019-05-22T02:15:33.954Z,995.19
2019-05-22T02:16:33.963Z,995.25
2019-05-22T02:17:33.950Z,995.23
2019-05-22T02:18:33.917Z,995.23
2019-05-22T02:19:33.905Z,995.27
2019-05-22T02:20:33.894Z,995.25
2019-05-22T02:21:33.883Z,995.23
2019-05-22T02:22:33.893Z,995.28
2019-05-22T02:23:33.861Z,995.28
2019-05-22T02:24:33.851Z,995.27
2019-05-22T02:25:33.837Z,995.27
2019-05-22T02:26:33.850Z,995.30
2019-05-22T02:27:33.815Z,995.25
2019-05-22T02:28:33.806Z,995.24
2019-05-22T02:29:33.798Z,995.27
2019-05-22T02:30:33.787Z,995.26
2019-05-22T02:31:33.785Z,995.29
2019-05-22T02:32:33.758Z,995.29
2019-05-22T02:33:33.751Z,995.30
2019-05-22T02:34:33.739Z,995.27
2019-05-22T02:35:33.725Z,995.24
2019-05-22T02:36:33.737Z,995.26
2019-05-22T02:37:33.703Z,995.23
2019-05-22T02:38:33.690Z,995.28
2019-05-22T02:39:33.677Z,995.27
2019-05-22T02:40:33.667Z,995.24
2019-05-22T02:41:33.682Z,995.27
2019-05-22T02:42:33.644Z,995.26
2019-05-22T02:43:33.633Z,995.25
2019-05-22T02:44:33.631Z,995.29
2019-05-22T02:45:33.611Z,995.29
2019-05-22T02:46:33.635Z,995.30
2019-05-22T02:47:33.591Z,995.32
2019-05-22T02:48:33.577Z,995.31
2019-05-22T02:49:33.567Z,995.34
2019-05-22T02:50:33.562Z,995.32
2019-05-22T02:51:33.570Z,995.36
2019-05-22T02:52:33.539Z,995.34
2019-05-22T02:53:33.540Z,995.41
2019-05-22T02:54:33.519Z,995.45
2019-05-22T02:55:33.499Z,995.42
2019-05-22T02:56:33.525Z,995.46
2019-05-22T02:57:33.496Z,995.47
2019-05-22T02:58:33.462Z,995.46
2019-05-22T02:59:33.453Z,995.53
2019-05-22T03:00:33.444Z,995.54
2019-05-22T03:01:33.451Z,995.54
2019-05-22T03:02:33.418Z,995.59
2019-05-22T03:03:33.406Z,995.53
2019-05-22T03:04:33.398Z,995.49
2019-05-22T03:05:33.386Z,995.53
2019-05-22T03:06:33.395Z,995.55
2019-05-22T03:07:33.363Z,995.57
2019-05-22T03:08:33.371Z,995.58
2019-05-22T03:09:33.338Z,995.56
2019-05-22T03:10:33.328Z,995.62
2019-05-22T03:11:35.271Z,995.61
2019-05-22T03:12:33.344Z,995.59
2019-05-22T03:13:33.294Z,995.59
2019-05-22T03:14:33.281Z,995.63
2019-05-22T03:15:33.270Z,995.56
2019-05-22T03:16:33.259Z,995.57
2019-05-22T03:17:33.270Z,995.60
2019-05-22T03:18:33.237Z,995.57
2019-05-22T03:19:33.226Z,995.60
2019-05-22T03:20:33.279Z,995.60
2019-05-22T03:21:33.202Z,995.65
2019-05-22T03:22:33.215Z,995.75
2019-05-22T03:23:33.181Z,995.64
2019-05-22T03:24:33.170Z,995.65
2019-05-22T03:25:33.193Z,995.72
2019-05-22T03:26:33.145Z,995.74
2019-05-22T03:27:33.136Z,995.75
2019-05-22T03:28:33.122Z,995.76
2019-05-22T03:29:33.112Z,995.73
2019-05-22T03:30:33.132Z,995.73
2019-05-22T03:31:33.098Z,995.78
2019-05-22T03:32:33.080Z,995.72
2019-05-22T03:33:33.078Z,995.73
2019-05-22T03:34:33.085Z,995.74
2019-05-22T03:35:33.058Z,995.69
2019-05-22T03:36:33.050Z,995.73
2019-05-22T03:37:33.019Z,995.72
2019-05-22T03:38:33.031Z,995.76
2019-05-22T03:39:32.998Z,995.80
2019-05-22T03:40:32.993Z,995.78
2019-05-22T03:41:32.977Z,995.79
2019-05-22T03:42:32.966Z,995.84
2019-05-22T03:43:32.974Z,995.85
2019-05-22T03:44:32.945Z,995.87
2019-05-22T03:45:32.945Z,995.88
2019-05-22T03:46:32.941Z,995.84
2019-05-22T03:47:32.912Z,995.88
2019-05-22T03:48:32.914Z,995.87
2019-05-22T03:49:32.903Z,995.83
2019-05-22T03:50:32.895Z,995.84
2019-05-22T03:51:33.547Z,995.86
2019-05-22T03:52:32.876Z,995.83
2019-05-22T03:53:32.891Z,995.87
2019-05-22T03:54:32.827Z,995.85
2019-05-22T03:55:32.940Z,995.87
2019-05-22T03:56:32.841Z,995.90
2019-05-22T03:57:32.885Z,995.87
2019-05-22T03:58:32.783Z,995.87
2019-05-22T03:59:32.783Z,995.91
2019-05-22T04:00:32.783Z,995.85
2019-05-22T04:01:32.748Z,995.89
2019-05-22T04:02:32.737Z,995.94
2019-05-22T04:03:32.748Z,995.94
2019-05-22T04:04:32.716Z,995.94
2019-05-22T04:05:32.724Z,995.95
2019-05-22T04:06:32.760Z,995.89
2019-05-22T04:07:32.680Z,995.91
2019-05-22T04:08:32.673Z,995.92
2019-05-22T04:09:32.682Z,995.86
2019-05-22T04:10:32.647Z,995.91
2019-05-22T04:11:32.636Z,995.91
2019-05-22T04:12:32.622Z,995.92
2019-05-22T04:13:32.618Z,995.96
2019-05-22T04:14:32.625Z,995.93
2019-05-22T04:15:32.613Z,995.96
2019-05-22T04:16:32.580Z,996.00
2019-05-22T04:17:32.566Z,996.03
2019-05-22T04:18:32.556Z,996.02
2019-05-22T04:19:47.345Z,996.05
2019-05-22T04:20:33.540Z,996.04
2019-05-22T04:21:32.522Z,996.03
2019-05-22T04:22:32.513Z,996.08
2019-05-22T04:23:32.499Z,996.04
2019-05-22T04:24:32.514Z,996.10
2019-05-22T04:25:32.500Z,996.09
2019-05-22T04:26:32.471Z,996.14
2019-05-22T04:27:32.457Z,996.11
2019-05-22T04:28:32.464Z,996.13
2019-05-22T04:29:32.432Z,996.17
2019-05-22T04:30:32.420Z,996.17
2019-05-22T04:31:32.408Z,996.18
2019-05-22T04:32:32.402Z,996.20
2019-05-22T04:33:32.409Z,996.24
2019-05-22T04:34:32.380Z,996.19
2019-05-22T04:35:32.390Z,996.25
2019-05-22T04:36:32.350Z,996.26
2019-05-22T04:37:32.340Z,996.26
2019-05-22T04:38:32.333Z,996.26
2019-05-22T04:39:32.318Z,996.25
2019-05-22T04:40:32.329Z,996.28
2019-05-22T04:41:32.295Z,996.26
2019-05-22T04:42:32.306Z,996.29
2019-05-22T04:43:32.283Z,996.30
2019-05-22T04:44:32.264Z,996.32
2019-05-22T04:45:32.285Z,996.32
2019-05-22T04:46:32.260Z,996.29
2019-05-22T04:47:32.227Z,996.36
2019-05-22T04:48:32.241Z,996.29
2019-05-22T04:49:32.204Z,996.32
2019-05-22T04:50:32.193Z,996.38
2019-05-22T04:51:32.197Z,996.37
2019-05-22T04:52:32.198Z,996.35
2019-05-22T04:53:32.182Z,996.36
2019-05-22T04:54:32.171Z,996.42
2019-05-22T04:55:32.137Z,996.39
2019-05-22T04:56:32.134Z,996.42
2019-05-22T04:57:32.114Z,996.44
2019-05-22T04:58:32.105Z,996.40
2019-05-22T04:59:32.116Z,996.41
2019-05-22T05:00:32.081Z,996.45
2019-05-22T05:01:32.077Z,996.47
2019-05-22T05:02:32.062Z,996.46
2019-05-22T05:03:32.082Z,996.44
2019-05-22T05:04:32.060Z,996.55
2019-05-22T05:05:32.024Z,996.48
2019-05-22T05:06:32.020Z,996.45
2019-05-22T05:07:32.001Z,996.49
2019-05-22T05:08:32.014Z,996.50
2019-05-22T05:09:32.006Z,996.52
2019-05-22T05:10:31.966Z,996.53
2019-05-22T05:11:31.955Z,996.49
2019-05-22T05:12:31.944Z,996.49
2019-05-22T05:13:31.939Z,996.52
2019-05-22T05:14:31.944Z,996.50
2019-05-22T05:15:31.912Z,996.43
2019-05-22T05:16:31.899Z,996.43
2019-05-22T05:17:31.889Z,996.49
2019-05-22T05:18:31.901Z,996.46
2019-05-22T05:19:31.866Z,996.48
2019-05-22T05:20:31.854Z,996.46
2019-05-22T05:21:31.843Z,996.48
2019-05-22T05:22:31.858Z,996.46
2019-05-22T05:23:31.824Z,996.52
2019-05-22T05:24:31.811Z,996.46
2019-05-22T05:25:31.821Z,996.47
2019-05-22T05:26:31.787Z,996.51
2019-05-22T05:27:31.776Z,996.53
2019-05-22T05:28:31.762Z,996.53
2019-05-22T05:29:31.754Z,996.54
2019-05-22T05:30:31.765Z,996.55
2019-05-22T05:31:31.728Z,996.56
2019-05-22T05:32:31.719Z,996.58
2019-05-22T05:33:31.709Z,996.56
2019-05-22T05:34:31.718Z,996.63
2019-05-22T05:35:31.707Z,996.66
2019-05-22T05:36:31.673Z,996.64
2019-05-22T05:37:31.661Z,996.64
2019-05-22T05:38:31.657Z,996.68
2019-05-22T05:39:31.661Z,996.69
2019-05-22T05:40:31.632Z,996.64
2019-05-22T05:41:31.638Z,996.68
2019-05-22T05:42:31.605Z,996.66
2019-05-22T05:43:31.594Z,996.69
2019-05-22T05:44:31.582Z,996.63
2019-05-22T05:45:31.593Z,996.69
2019-05-22T05:46:31.559Z,996.68
2019-05-22T05:47:31.548Z,996.70
2019-05-22T05:48:31.543Z,996.73
2019-05-22T05:49:31.547Z,996.70
2019-05-22T05:50:39.788Z,996.73
2019-05-22T05:51:32.500Z,996.70
2019-05-22T05:52:31.496Z,996.69
2019-05-22T05:53:31.481Z,996.72
2019-05-22T05:54:31.497Z,996.69
2019-05-22T05:55:31.479Z,996.70
2019-05-22T05:56:31.449Z,996.70
2019-05-22T05:57:31.455Z,996.74
2019-05-22T05:58:31.424Z,996.72
2019-05-22T05:59:31.412Z,996.68
2019-05-22T06:00:31.453Z,996.69
2019-05-22T06:01:31.396Z,996.74
2019-05-22T06:02:31.399Z,996.76
2019-05-22T06:03:31.390Z,996.71
2019-05-22T06:04:35.052Z,996.75
2019-05-22T06:05:31.343Z,996.73
2019-05-22T06:06:31.355Z,996.72
2019-05-22T06:07:31.320Z,996.74
2019-05-22T06:08:31.310Z,996.76
2019-05-22T06:09:31.297Z,996.80
2019-05-22T06:10:31.290Z,996.79
2019-05-22T06:11:31.300Z,996.86
2019-05-22T06:12:31.282Z,996.84
2019-05-22T06:13:31.255Z,996.82
2019-05-22T06:14:31.259Z,996.84
2019-05-22T06:15:45.941Z,996.88
2019-05-22T06:16:32.217Z,996.84
2019-05-22T06:17:31.234Z,996.84
2019-05-22T06:18:31.204Z,996.88
2019-05-22T06:19:31.187Z,996.88
2019-05-22T06:20:31.332Z,996.88
2019-05-22T06:21:31.182Z,996.88
2019-05-22T06:22:31.166Z,996.92
2019-05-22T06:23:31.141Z,996.88
2019-05-22T06:24:31.128Z,996.92
2019-05-22T06:25:31.137Z,996.92
2019-05-22T06:26:31.127Z,996.89
2019-05-22T06:27:31.094Z,996.96
2019-05-22T06:28:31.106Z,996.95
2019-05-22T06:29:31.073Z,996.96
2019-05-22T06:30:31.059Z,996.93
2019-05-22T06:31:31.048Z,996.98
2019-05-22T06:32:31.063Z,997.00
2019-05-22T06:33:31.245Z,997.00
2019-05-22T06:34:31.025Z,997.03
2019-05-22T06:35:31.004Z,996.99
2019-05-22T06:36:31.016Z,997.03
2019-05-22T06:37:30.982Z,997.04
2019-05-22T06:38:30.993Z,997.07
2019-05-22T06:39:30.983Z,997.10
2019-05-22T06:40:30.968Z,997.11
2019-05-22T06:41:30.958Z,997.14
2019-05-22T06:42:30.924Z,997.16
2019-05-22T06:43:30.915Z,997.17
2019-05-22T06:44:30.902Z,997.14
2019-05-22T06:45:30.918Z,997.17
2019-05-22T06:46:30.879Z,997.19
2019-05-22T06:47:30.869Z,997.14
2019-05-22T06:48:30.879Z,997.14
2019-05-22T06:49:30.844Z,997.14
2019-05-22T06:50:30.833Z,997.16
2019-05-22T06:51:30.837Z,997.18
2019-05-22T06:52:30.810Z,997.11
2019-05-22T06:53:30.828Z,997.18
2019-05-22T06:54:30.833Z,997.17
2019-05-22T06:55:30.797Z,997.20
2019-05-22T06:56:30.770Z,997.17
2019-05-22T06:57:30.757Z,997.18
2019-05-22T06:58:30.762Z,997.21
2019-05-22T06:59:30.731Z,997.19
2019-05-22T07:00:30.744Z,997.19
2019-05-22T07:01:30.735Z,997.20
2019-05-22T07:02:30.698Z,997.22
2019-05-22T07:03:30.686Z,997.22
2019-05-22T07:04:30.675Z,997.20
2019-05-22T07:05:30.727Z,997.22
2019-05-22T07:06:30.656Z,997.27
2019-05-22T07:07:30.722Z,997.24
2019-05-22T07:08:30.629Z,997.29
2019-05-22T07:09:30.618Z,997.28
2019-05-22T07:10:30.630Z,997.33
2019-05-22T07:11:30.595Z,997.33
2019-05-22T07:12:30.585Z,997.33
2019-05-22T07:13:30.571Z,997.31
2019-05-22T07:14:30.563Z,997.33
2019-05-22T07:15:30.578Z,997.38
2019-05-22T07:16:30.538Z,997.38
2019-05-22T07:17:30.531Z,997.33
2019-05-22T07:18:30.515Z,997.36
2019-05-22T07:19:30.505Z,997.35
2019-05-22T07:20:30.515Z,997.36
2019-05-22T07:21:34.076Z,997.33
2019-05-22T07:22:30.485Z,997.36
2019-05-22T07:23:30.461Z,997.37
2019-05-22T07:24:30.447Z,997.37
2019-05-22T07:25:30.459Z,997.42
2019-05-22T07:26:30.427Z,997.42
2019-05-22T07:27:30.414Z,997.45
2019-05-22T07:28:30.471Z,997.39
2019-05-22T07:29:30.391Z,997.43
2019-05-22T07:30:30.410Z,997.45
2019-05-22T07:31:30.374Z,997.39
2019-05-22T07:32:31.149Z,997.42
2019-05-22T07:33:30.371Z,997.39
2019-05-22T07:34:30.343Z,997.46
2019-05-22T07:35:46.158Z,997.42
2019-05-22T07:36:31.310Z,997.47
2019-05-22T07:37:30.323Z,997.43
2019-05-22T07:38:30.288Z,997.46
2019-05-22T07:39:30.287Z,997.46
2019-05-22T07:40:30.268Z,997.48
2019-05-22T07:41:30.277Z,997.48
2019-05-22T07:42:30.277Z,997.54
2019-05-22T07:43:30.301Z,997.51
2019-05-22T07:44:30.223Z,997.48
2019-05-22T07:45:30.211Z,997.54
2019-05-22T07:46:31.037Z,997.56
2019-05-22T07:47:30.270Z,997.51
2019-05-22T07:48:30.175Z,997.60
2019-05-22T07:49:30.167Z,997.56
2019-05-22T07:50:30.197Z,997.60
2019-05-22T07:51:30.143Z,997.65
2019-05-22T07:52:30.134Z,997.67
2019-05-22T07:53:30.127Z,997.63
2019-05-22T07:54:30.108Z,997.67
2019-05-22T07:55:30.134Z,997.69
2019-05-22T07:56:30.086Z,997.66
2019-05-22T07:57:30.079Z,997.66
2019-05-22T07:58:30.062Z,997.68
2019-05-22T07:59:30.077Z,997.68
2019-05-22T08:00:30.047Z,997.65
2019-05-22T08:01:30.032Z,997.66
2019-05-22T08:02:30.022Z,997.71
2019-05-22T08:03:30.036Z,997.67
2019-05-22T08:04:29.995Z,997.71
2019-05-22T08:05:29.983Z,997.70
2019-05-22T08:06:29.972Z,997.72
2019-05-22T08:07:29.976Z,997.69
2019-05-22T08:08:29.986Z,997.67
2019-05-22T08:09:29.939Z,997.70
2019-05-22T08:10:29.928Z,997.74
2019-05-22T08:11:29.916Z,997.73
2019-05-22T08:12:29.904Z,997.73
2019-05-22T08:13:29.914Z,997.72
2019-05-22T08:14:29.892Z,997.73
2019-05-22T08:15:29.871Z,997.71
2019-05-22T08:16:29.861Z,997.73
2019-05-22T08:17:29.875Z,997.74
2019-05-22T08:18:29.850Z,997.72
2019-05-22T08:19:29.824Z,997.78
2019-05-22T08:20:29.816Z,997.77
2019-05-22T08:21:29.826Z,997.74
2019-05-22T08:22:29.792Z,997.79
2019-05-22T08:23:29.816Z,997.77
2019-05-22T08:24:29.774Z,997.79
2019-05-22T08:25:29.755Z,997.79
2019-05-22T08:26:29.747Z,997.78
2019-05-22T08:27:29.733Z,997.77
2019-05-22T08:28:29.749Z,997.77
2019-05-22T08:29:29.711Z,997.77
2019-05-22T08:30:29.749Z,997.79
2019-05-22T08:31:29.689Z,997.83
2019-05-22T08:32:29.710Z,997.84
2019-05-22T08:33:29.666Z,997.88
2019-05-22T08:34:29.679Z,997.86
2019-05-22T08:35:29.651Z,997.89
2019-05-22T08:36:29.711Z,997.99
2019-05-22T08:37:29.688Z,997.90
2019-05-22T08:38:29.612Z,997.97
2019-05-22T08:39:29.597Z,997.99
2019-05-22T08:40:29.610Z,997.96
2019-05-22T08:41:29.576Z,997.95
2019-05-22T08:42:29.563Z,998.02
2019-05-22T08:43:29.551Z,997.99
2019-05-22T08:44:29.541Z,998.01
2019-05-22T08:45:29.575Z,998.03
2019-05-22T08:46:29.521Z,998.00
2019-05-22T08:47:29.507Z,998.01
2019-05-22T08:48:29.496Z,998.06
2019-05-22T08:49:29.490Z,998.04
2019-05-22T08:50:29.503Z,998.07
2019-05-22T08:51:29.468Z,998.09
2019-05-22T08:52:29.458Z,998.10
2019-05-22T08:53:44.368Z,998.10
2019-05-22T08:54:30.428Z,998.12
2019-05-22T08:55:29.432Z,998.12
2019-05-22T08:56:29.409Z,998.07
2019-05-22T08:57:29.395Z,998.09
2019-05-22T08:58:29.391Z,998.14
2019-05-22T08:59:29.372Z,998.14
2019-05-22T09:00:29.386Z,998.14
2019-05-22T09:01:29.353Z,998.17
2019-05-22T09:02:29.337Z,998.13
2019-05-22T09:03:29.324Z,998.14
2019-05-22T09:04:29.318Z,998.18
2019-05-22T09:05:29.328Z,998.19
2019-05-22T09:06:29.294Z,998.21
2019-05-22T09:07:29.282Z,998.17
2019-05-22T09:08:29.275Z,998.23
2019-05-22T09:09:29.285Z,998.25
2019-05-22T09:10:29.245Z,998.26
2019-05-22T09:11:29.236Z,998.26
2019-05-22T09:12:29.227Z,998.32
2019-05-22T09:13:29.243Z,998.26
2019-05-22T09:14:29.201Z,998.29
2019-05-22T09:15:29.213Z,998.31
2019-05-22T09:16:29.179Z,998.33
2019-05-22T09:17:29.168Z,998.32
2019-05-22T09:18:29.181Z,998.29
2019-05-22T09:19:29.146Z,998.31
2019-05-22T09:20:29.135Z,998.29
2019-05-22T09:21:29.122Z,998.36
2019-05-22T09:22:39.997Z,998.35
2019-05-22T09:23:30.113Z,998.35
2019-05-22T09:24:29.113Z,998.36
2019-05-22T09:25:29.086Z,998.35
2019-05-22T09:26:29.067Z,998.34
2019-05-22T09:27:29.057Z,998.32
2019-05-22T09:28:29.070Z,998.40
2019-05-22T09:29:29.031Z,998.36
2019-05-22T09:30:29.020Z,998.34
2019-05-22T09:31:29.035Z,998.32
2019-05-22T09:32:29.001Z,998.32
2019-05-22T09:33:29.165Z,998.36
2019-05-22T09:34:28.975Z,998.38
2019-05-22T09:35:28.963Z,998.34
2019-05-22T09:36:28.964Z,998.33
2019-05-22T09:37:28.945Z,998.33
2019-05-22T09:38:28.958Z,998.35
2019-05-22T09:39:28.917Z,998.37
2019-05-22T09:40:28.907Z,998.40
2019-05-22T09:41:28.901Z,998.38
2019-05-22T09:42:28.896Z,998.38
2019-05-22T09:43:28.896Z,998.38
2019-05-22T09:44:28.865Z,998.36
2019-05-22T09:45:28.851Z,998.42
2019-05-22T09:46:28.843Z,998.45
2019-05-22T09:47:28.849Z,998.38
2019-05-22T09:48:28.846Z,998.44
2019-05-22T09:49:28.810Z,998.40
2019-05-22T09:50:28.840Z,998.45
2019-05-22T09:51:28.803Z,998.46
2019-05-22T09:52:28.772Z,998.48
2019-05-22T09:53:28.781Z,998.49
2019-05-22T09:54:28.771Z,998.44
2019-05-22T09:55:28.817Z,998.51
2019-05-22T09:56:28.730Z,998.56
2019-05-22T09:57:28.720Z,998.53
2019-05-22T09:58:28.705Z,998.51
2019-05-22T09:59:28.714Z,998.51
2019-05-22T10:00:28.700Z,998.49
2019-05-22T10:01:28.674Z,998.49
2019-05-22T10:02:28.660Z,998.54
2019-05-22T10:03:28.714Z,998.50
2019-05-22T10:04:28.665Z,998.55
2019-05-22T10:05:28.630Z,998.58
2019-05-22T10:06:28.614Z,998.61
2019-05-22T10:07:28.600Z,998.59
2019-05-22T10:08:28.590Z,998.61
2019-05-22T10:09:28.603Z,998.62
2019-05-22T10:10:28.566Z,998.62
2019-05-22T10:11:28.584Z,998.65
2019-05-22T10:12:28.549Z,998.64
2019-05-22T10:13:29.287Z,998.69
2019-05-22T10:14:28.530Z,998.69
2019-05-22T10:15:28.611Z,998.66
2019-05-22T10:16:28.531Z,998.70
2019-05-22T10:17:28.503Z,998.66
2019-05-22T10:18:28.494Z,998.71
2019-05-22T10:19:28.464Z,998.66
2019-05-22T10:20:28.453Z,998.70
2019-05-22T10:21:28.456Z,998.75
2019-05-22T10:22:28.459Z,998.77
2019-05-22T10:23:28.447Z,998.80
2019-05-22T10:24:28.417Z,998.80
2019-05-22T10:25:28.422Z,998.80
2019-05-22T10:26:28.420Z,998.79
2019-05-22T10:27:28.374Z,998.77
2019-05-22T10:28:28.363Z,998.81
2019-05-22T10:29:31.984Z,998.82
2019-05-22T10:30:28.345Z,998.80
2019-05-22T10:31:28.331Z,998.88
2019-05-22T10:32:31.807Z,998.93
2019-05-22T10:33:28.314Z,998.89
2019-05-22T10:34:28.295Z,998.91
2019-05-22T10:35:28.292Z,998.87
2019-05-22T10:36:28.299Z,998.93
2019-05-22T10:37:28.264Z,998.94
2019-05-22T10:38:28.266Z,998.96
2019-05-22T10:39:28.269Z,998.94
2019-05-22T10:40:28.228Z,998.95
2019-05-22T10:41:28.221Z,998.99
2019-05-22T10:42:28.207Z,998.98
2019-05-22T10:43:28.193Z,999.03
2019-05-22T10:44:28.206Z,999.00
2019-05-22T10:45:28.170Z,998.99
2019-05-22T10:46:28.159Z,999.03
2019-05-22T10:47:28.151Z,999.06
2019-05-22T10:48:28.139Z,999.02
2019-05-22T10:49:28.156Z,999.04
2019-05-22T10:50:28.119Z,999.06
2019-05-22T10:51:28.104Z,999.04
2019-05-22T10:52:28.094Z,999.07
2019-05-22T10:53:33.461Z,999.08
2019-05-22T10:54:29.099Z,999.10
2019-05-22T10:55:28.062Z,999.09
2019-05-22T10:56:28.050Z,999.12
2019-05-22T10:57:28.043Z,999.07
2019-05-22T10:58:28.023Z,999.12
2019-05-22T10:59:28.019Z,999.13
2019-05-22T11:00:28.028Z,999.09
2019-05-22T11:01:27.990Z,999.08
2019-05-22T11:02:27.980Z,999.15
2019-05-22T11:03:27.967Z,999.11
2019-05-22T11:04:27.957Z,999.13
2019-05-22T11:05:27.975Z,999.11
2019-05-22T11:06:27.934Z,999.13
2019-05-22T11:07:27.924Z,999.17
2019-05-22T11:08:31.757Z,999.16
2019-05-22T11:09:28.901Z,999.12
2019-05-22T11:10:27.925Z,999.14
2019-05-22T11:11:27.879Z,999.08
2019-05-22T11:12:27.866Z,999.13
2019-05-22T11:13:27.925Z,999.10
2019-05-22T11:14:27.844Z,999.13
2019-05-22T11:15:27.855Z,999.11
2019-05-22T11:16:27.822Z,999.09
2019-05-22T11:17:27.811Z,999.07
2019-05-22T11:18:27.799Z,999.09
2019-05-22T11:19:27.789Z,999.08
2019-05-22T11:20:27.804Z,999.10
2019-05-22T11:21:27.767Z,999.13
2019-05-22T11:22:27.779Z,999.12
2019-05-22T11:23:27.743Z,999.12
2019-05-22T11:24:27.735Z,999.16
2019-05-22T11:25:27.722Z,999.15
2019-05-22T11:26:27.712Z,999.17
2019-05-22T11:27:27.727Z,999.15
2019-05-22T11:28:27.687Z,999.14
2019-05-22T11:29:27.675Z,999.14
2019-05-22T11:30:27.665Z,999.14
2019-05-22T11:31:27.685Z,999.14
2019-05-22T11:32:27.664Z,999.15
2019-05-22T11:33:27.630Z,999.14
2019-05-22T11:34:27.636Z,999.12
2019-05-22T11:35:27.609Z,999.09
2019-05-22T11:36:27.595Z,999.16
2019-05-22T11:37:27.616Z,999.13
2019-05-22T11:38:27.576Z,999.14
2019-05-22T11:39:38.666Z,999.08
2019-05-22T11:40:28.558Z,999.13
2019-05-22T11:41:27.543Z,999.12
2019-05-22T11:42:27.529Z,999.14
2019-05-22T11:43:27.558Z,999.20
2019-05-22T11:44:27.509Z,999.12
2019-05-22T11:45:27.495Z,999.12
2019-05-22T11:46:27.485Z,999.18
2019-05-22T11:47:27.500Z,999.17
2019-05-22T11:48:27.462Z,999.12
2019-05-22T11:49:27.478Z,999.07
2019-05-22T11:50:27.440Z,999.12
2019-05-22T11:51:27.445Z,999.07
2019-05-22T11:52:27.418Z,999.08
2019-05-22T11:53:27.403Z,999.13
2019-05-22T11:54:27.421Z,999.11
2019-05-22T11:55:42.702Z,999.15
2019-05-22T11:56:28.369Z,999.15
2019-05-22T11:57:27.359Z,999.16
2019-05-22T11:58:27.351Z,999.22
2019-05-22T11:59:27.352Z,999.18
2019-05-22T12:00:27.325Z,999.20
2019-05-22T12:01:27.314Z,999.21
2019-05-22T12:02:27.339Z,999.23
2019-05-22T12:03:27.291Z,999.33
2019-05-22T12:04:27.301Z,999.29
2019-05-22T12:05:27.294Z,999.31
2019-05-22T12:06:27.307Z,999.34
2019-05-22T12:07:27.296Z,999.35
2019-05-22T12:08:27.236Z,999.33
2019-05-22T12:09:27.223Z,999.40
2019-05-22T12:10:27.235Z,999.39
2019-05-22T12:11:27.218Z,999.42
2019-05-22T12:12:27.189Z,999.43
2019-05-22T12:13:27.185Z,999.43
2019-05-22T12:14:27.169Z,999.49
2019-05-22T12:15:27.193Z,999.44
2019-05-22T12:16:27.148Z,999.46
2019-05-22T12:17:37.339Z,999.49
2019-05-22T12:18:28.124Z,999.45
2019-05-22T12:19:27.112Z,999.52
2019-05-22T12:20:27.136Z,999.50
2019-05-22T12:21:27.091Z,999.57
2019-05-22T12:22:27.078Z,999.53
2019-05-22T12:23:27.084Z,999.56
2019-05-22T12:24:35.535Z,999.55
2019-05-22T12:25:28.043Z,999.51
2019-05-22T12:26:27.040Z,999.56
2019-05-22T12:27:27.030Z,999.61
2019-05-22T12:28:27.023Z,999.60